ADDS METAR Data INFO
IDs: Format: Raw Decoded Include TAF

Data at: 0031 UTC 23 Feb 2018

KGCC 222353Z AUTO 31006KT 10SM CLR M09/M16 A3000 RMK AO2 SLP237 T10941161 11039 21106 53006
KGCC 222253Z AUTO 32007KT 10SM CLR M08/M14 A2998 RMK AO2 SLP225 T10781144
KGCC 222153Z AUTO 36007KT 10SM CLR M07/M15 A2998 RMK AO2 SLP211 T10671150
KGCC 222053Z AUTO 32005KT 10SM CLR M05/M15 A2998 RMK AO2 SLP214 T10501150 58018
KGCC 221953Z AUTO 00000KT 10SM CLR M04/M16 A3000 RMK AO2 SLP221 T10441156
KGCC 221853Z AUTO 00000KT 10SM CLR M06/M16 A3002 RMK AO2 SLP232 T10611156
KGCC 221753Z AUTO 00000KT 10SM CLR M11/M17 A3004 RMK AO2 SLP239 T11061172 11100 21233 58001
KGCC 221653Z AUTO 00000KT 10SM CLR M14/M20 A3004 RMK AO2 SLP254 T11441200
KGCC 221553Z AUTO 00000KT 10SM CLR M16/M22 A3004 RMK AO2 SLP248 T11561217
KGCC 221453Z AUTO 00000KT 10SM CLR M22/M25 A3004 RMK AO2 SLP270 T12221250 53002
KGCC 221353Z AUTO 31004KT 10SM CLR M22/M25 A3003 RMK AO2 SLP257 T12171250
KGCC 221253Z AUTO 00000KT 10SM CLR M21/M23 A3002 RMK AO2 SLP254 T12061233
KGCC 221153Z AUTO 11004KT 10SM CLR M19/M23 A3003 RMK AO2 SLP253 T11941233 11100 21200 55005
KGCC 221053Z AUTO 35005KT 10SM CLR M17/M22 A3003 RMK AO2 SLP244 T11721217
KGCC 220953Z AUTO 15008KT 10SM CLR M13/M19 A3004 RMK AO2 SLP236 T11281189
KGCC 220853Z AUTO 15011KT 10SM CLR M16/M21 A3005 RMK AO2 SLP246 T11561206 55006
KGCC 220753Z AUTO 15019KT 10SM CLR M16/M20 A3004 RMK AO2 SLP246 T11561200
KGCC 220653Z AUTO 17011KT 10SM CLR M16/M21 A3007 RMK AO2 SLP258 T11561206 410721239
KGCC 220553Z AUTO 10008KT 10SM CLR M12/M19 A3007 RMK AO2 SLP258 T11221189 11094 21172 55003
KGCC 220453Z AUTO 10006KT 10SM CLR M15/M19 A3005 RMK AO2 WSHFT 0340 SLP257 T11501194
KGCC 220400Z AUTO 14007KT 10SM CLR M12/M18 A3006 RMK AO2 WSHFT 0340 T11221178
KGCC 220353Z AUTO 18012KT 10SM CLR M11/M18 A3006 RMK AO2 SLP259 T11111178
KGCC 212353Z AUTO 16008KT 10SM CLR M11/M16 A3008 RMK AO2 SLP271 T11061161 11072 21128 50000
KGCC 212253Z AUTO 16009KT 10SM CLR M09/M16 A3009 RMK AO2 SLP273 T10891156
KGCC 212153Z AUTO 21011KT 10SM CLR M08/M15 A3009 RMK AO2 SLP269 T10781150
KGCC 212053Z AUTO 22013KT 10SM CLR M08/M15 A3008 RMK AO2 SLP266 T10781150 57019
KGCC 211953Z AUTO 19014KT 10SM CLR M09/M16 A3011 RMK AO2 SLP276 T10941161
KGCC 211853Z AUTO 22017KT 10SM CLR M11/M18 A3011 RMK AO2 SLP287 T11111178
KGCC 211753Z AUTO VRB05KT 10SM CLR M13/M20 A3014 RMK AO2 SLP297 T11331200 11133 21239 58000
KGCC 211653Z AUTO VRB06KT 10SM CLR M14/M22 A3014 RMK AO2 SLP304 T11391217
KGCC 211553Z AUTO 19005KT 10SM CLR M17/M23 A3015 RMK AO2 SLP313 T11721228
KGCC 211453Z AUTO 17018KT 10SM CLR M20/M24 A3014 RMK AO2 SLP313 T12001244 55001
KGCC 211353Z AUTO 00000KT 10SM CLR M21/M26 A3014 RMK AO2 SLP317 T12111256 $
KGCC 211253Z AUTO VRB04KT 10SM CLR M21/M25 A3014 RMK AO2 SLP308 T12061250 $